sensor_id;sensor_type;location;lat;lon;timestamp;temperature;humidity
76211;DHT22;65003;49.518;11.280;2023-07-28T00:01:07;17.00;99.90
76211;DHT22;65003;49.518;11.280;2023-07-28T00:03:34;17.00;99.90
76211;DHT22;65003;49.518;11.280;2023-07-28T00:06:00;17.00;99.90
76211;DHT22;65003;49.518;11.280;2023-07-28T00:08:27;17.00;99.90
76211;DHT22;65003;49.518;11.280;2023-07-28T00:10:53;17.00;99.90
76211;DHT22;65003;49.518;11.280;2023-07-28T00:13:20;17.00;99.90
76211;DHT22;65003;49.518;11.280;2023-07-28T00:15:47;17.00;99.90
76211;DHT22;65003;49.518;11.280;2023-07-28T00:18:13;17.00;99.90
76211;DHT22;65003;49.518;11.280;2023-07-28T00:20:40;17.00;99.90
76211;DHT22;65003;49.518;11.280;2023-07-28T00:23:07;17.00;99.90
76211;DHT22;65003;49.518;11.280;2023-07-28T00:25:33;17.00;99.90
76211;DHT22;65003;49.518;11.280;2023-07-28T00:28:00;17.00;99.90
76211;DHT22;65003;49.518;11.280;2023-07-28T00:30:26;17.00;99.90
76211;DHT22;65003;49.518;11.280;2023-07-28T00:32:53;17.00;99.90
76211;DHT22;65003;49.518;11.280;2023-07-28T00:35:19;17.00;99.90
76211;DHT22;65003;49.518;11.280;2023-07-28T00:37:46;17.00;99.90
76211;DHT22;65003;49.518;11.280;2023-07-28T00:40:13;17.00;99.90
76211;DHT22;65003;49.518;11.280;2023-07-28T00:42:39;17.00;99.90
76211;DHT22;65003;49.518;11.280;2023-07-28T00:45:06;17.00;99.90
76211;DHT22;65003;49.518;11.280;2023-07-28T00:47:33;17.00;99.90
76211;DHT22;65003;49.518;11.280;2023-07-28T00:50:00;17.10;99.90
76211;DHT22;65003;49.518;11.280;2023-07-28T00:52:26;17.10;99.90
76211;DHT22;65003;49.518;11.280;2023-07-28T00:54:53;17.00;99.90
76211;DHT22;65003;49.518;11.280;2023-07-28T00:57:19;17.00;99.90
76211;DHT22;65003;49.518;11.280;2023-07-28T00:59:46;17.00;99.90
76211;DHT22;65003;49.518;11.280;2023-07-28T01:02:13;17.10;99.90
76211;DHT22;65003;49.518;11.280;2023-07-28T01:04:39;17.00;99.90
76211;DHT22;65003;49.518;11.280;2023-07-28T01:07:11;17.00;99.90
76211;DHT22;65003;49.518;11.280;2023-07-28T01:09:46;17.10;99.90
76211;DHT22;65003;49.518;11.280;2023-07-28T01:12:09;17.10;99.90
76211;DHT22;65003;49.518;11.280;2023-07-28T01:14:36;17.00;99.90
76211;DHT22;65003;49.518;11.280;2023-07-28T01:17:03;17.00;99.90
76211;DHT22;65003;49.518;11.280;2023-07-28T01:19:29;17.00;99.90
76211;DHT22;65003;49.518;11.280;2023-07-28T01:22:34;17.00;99.90
76211;DHT22;65003;49.518;11.280;2023-07-28T01:25:05;17.00;99.90
76211;DHT22;65003;49.518;11.280;2023-07-28T01:27:27;17.00;99.90
76211;DHT22;65003;49.518;11.280;2023-07-28T01:29:54;17.00;99.90
76211;DHT22;65003;49.518;11.280;2023-07-28T01:32:20;17.00;99.90
76211;DHT22;65003;49.518;11.280;2023-07-28T01:34:47;17.00;99.90
76211;DHT22;65003;49.518;11.280;2023-07-28T01:37:14;17.00;99.90
76211;DHT22;65003;49.518;11.280;2023-07-28T01:39:40;17.00;99.90
76211;DHT22;65003;49.518;11.280;2023-07-28T01:42:07;17.00;99.90
76211;DHT22;65003;49.518;11.280;2023-07-28T01:44:33;17.00;99.90
76211;DHT22;65003;49.518;11.280;2023-07-28T01:47:00;17.00;99.90
76211;DHT22;65003;49.518;11.280;2023-07-28T01:49:27;17.00;99.90
76211;DHT22;65003;49.518;11.280;2023-07-28T01:51:53;17.00;99.90
76211;DHT22;65003;49.518;11.280;2023-07-28T01:54:20;16.90;99.90
76211;DHT22;65003;49.518;11.280;2023-07-28T01:56:47;16.90;99.90
76211;DHT22;65003;49.518;11.280;2023-07-28T01:59:13;16.90;99.90
76211;DHT22;65003;49.518;11.280;2023-07-28T02:01:40;16.90;99.90
76211;DHT22;65003;49.518;11.280;2023-07-28T02:04:06;16.90;99.90
76211;DHT22;65003;49.518;11.280;2023-07-28T02:06:33;16.90;99.90
76211;DHT22;65003;49.518;11.280;2023-07-28T02:08:59;16.90;99.90
76211;DHT22;65003;49.518;11.280;2023-07-28T02:11:26;16.90;99.90
76211;DHT22;65003;49.518;11.280;2023-07-28T02:13:53;16.90;99.90
76211;DHT22;65003;49.518;11.280;2023-07-28T02:16:19;16.90;99.90
76211;DHT22;65003;49.518;11.280;2023-07-28T02:18:46;16.90;99.90
76211;DHT22;65003;49.518;11.280;2023-07-28T02:21:13;16.90;99.90
76211;DHT22;65003;49.518;11.280;2023-07-28T02:23:39;16.90;99.90
76211;DHT22;65003;49.518;11.280;2023-07-28T02:26:06;16.90;99.90
76211;DHT22;65003;49.518;11.280;2023-07-28T02:28:33;16.90;99.90
76211;DHT22;65003;49.518;11.280;2023-07-28T02:30:59;16.90;99.90
76211;DHT22;65003;49.518;11.280;2023-07-28T02:33:26;16.90;99.90
76211;DHT22;65003;49.518;11.280;2023-07-28T02:35:52;16.90;99.90
76211;DHT22;65003;49.518;11.280;2023-07-28T02:38:19;16.90;99.90
76211;DHT22;65003;49.518;11.280;2023-07-28T02:40:45;16.90;99.90
76211;DHT22;65003;49.518;11.280;2023-07-28T02:43:12;16.90;99.90
76211;DHT22;65003;49.518;11.280;2023-07-28T02:45:39;16.80;99.90
76211;DHT22;65003;49.518;11.280;2023-07-28T02:48:05;16.90;99.90
76211;DHT22;65003;49.518;11.280;2023-07-28T02:50:32;16.90;99.90
76211;DHT22;65003;49.518;11.280;2023-07-28T02:52:58;16.90;99.90
76211;DHT22;65003;49.518;11.280;2023-07-28T02:55:25;16.90;99.90
76211;DHT22;65003;49.518;11.280;2023-07-28T02:57:52;16.90;99.90
76211;DHT22;65003;49.518;11.280;2023-07-28T03:00:18;16.90;99.90
76211;DHT22;65003;49.518;11.280;2023-07-28T03:02:45;16.80;99.90
76211;DHT22;65003;49.518;11.280;2023-07-28T03:05:11;16.80;99.90
76211;DHT22;65003;49.518;11.280;2023-07-28T03:07:38;16.80;99.90
76211;DHT22;65003;49.518;11.280;2023-07-28T03:10:05;16.80;99.90
76211;DHT22;65003;49.518;11.280;2023-07-28T03:12:32;16.80;99.90
76211;DHT22;65003;49.518;11.280;2023-07-28T03:14:58;16.80;99.90
76211;DHT22;65003;49.518;11.280;2023-07-28T03:17:25;16.90;99.90
76211;DHT22;65003;49.518;11.280;2023-07-28T03:19:51;16.90;99.90
76211;DHT22;65003;49.518;11.280;2023-07-28T03:22:18;16.90;99.90
76211;DHT22;65003;49.518;11.280;2023-07-28T03:24:45;16.90;99.90
76211;DHT22;65003;49.518;11.280;2023-07-28T03:27:11;16.90;99.90
76211;DHT22;65003;49.518;11.280;2023-07-28T03:29:38;16.90;99.90
76211;DHT22;65003;49.518;11.280;2023-07-28T03:32:05;16.90;99.90
76211;DHT22;65003;49.518;11.280;2023-07-28T03:34:31;16.90;99.90
76211;DHT22;65003;49.518;11.280;2023-07-28T03:36:58;17.00;99.90
76211;DHT22;65003;49.518;11.280;2023-07-28T03:39:25;17.00;99.90
76211;DHT22;65003;49.518;11.280;2023-07-28T03:41:51;17.00;99.90
76211;DHT22;65003;49.518;11.280;2023-07-28T03:44:18;17.00;99.90
76211;DHT22;65003;49.518;11.280;2023-07-28T03:46:44;17.00;99.90
76211;DHT22;65003;49.518;11.280;2023-07-28T03:49:11;17.00;99.90
76211;DHT22;65003;49.518;11.280;2023-07-28T03:51:38;17.00;99.90
76211;DHT22;65003;49.518;11.280;2023-07-28T03:54:04;17.00;99.90
76211;DHT22;65003;49.518;11.280;2023-07-28T03:56:31;17.00;99.90
76211;DHT22;65003;49.518;11.280;2023-07-28T03:58:57;17.00;99.90
76211;DHT22;65003;49.518;11.280;2023-07-28T04:01:24;17.00;99.90
76211;DHT22;65003;49.518;11.280;2023-07-28T04:03:51;17.10;99.90
76211;DHT22;65003;49.518;11.280;2023-07-28T04:06:17;17.00;99.90
76211;DHT22;65003;49.518;11.280;2023-07-28T04:08:44;17.00;99.90
76211;DHT22;65003;49.518;11.280;2023-07-28T04:11:10;17.10;99.90
76211;DHT22;65003;49.518;11.280;2023-07-28T04:13:37;17.10;99.90
76211;DHT22;65003;49.518;11.280;2023-07-28T04:16:03;17.10;99.90
76211;DHT22;65003;49.518;11.280;2023-07-28T04:18:30;17.10;99.90
76211;DHT22;65003;49.518;11.280;2023-07-28T04:20:57;17.10;99.90
76211;DHT22;65003;49.518;11.280;2023-07-28T04:23:23;17.10;99.90
76211;DHT22;65003;49.518;11.280;2023-07-28T04:25:50;17.20;99.90
76211;DHT22;65003;49.518;11.280;2023-07-28T04:28:16;17.10;99.90
76211;DHT22;65003;49.518;11.280;2023-07-28T04:30:43;17.10;99.90
76211;DHT22;65003;49.518;11.280;2023-07-28T04:33:10;17.10;99.90
76211;DHT22;65003;49.518;11.280;2023-07-28T04:35:36;17.10;99.90
76211;DHT22;65003;49.518;11.280;2023-07-28T04:38:03;17.10;99.90
76211;DHT22;65003;49.518;11.280;2023-07-28T04:40:29;17.20;99.90
76211;DHT22;65003;49.518;11.280;2023-07-28T04:42:56;17.50;99.90
76211;DHT22;65003;49.518;11.280;2023-07-28T04:45:23;17.20;99.90
76211;DHT22;65003;49.518;11.280;2023-07-28T04:47:49;17.20;99.90
76211;DHT22;65003;49.518;11.280;2023-07-28T04:50:16;17.30;99.90
76211;DHT22;65003;49.518;11.280;2023-07-28T04:52:43;17.30;99.90
76211;DHT22;65003;49.518;11.280;2023-07-28T04:55:09;17.30;99.90
76211;DHT22;65003;49.518;11.280;2023-07-28T04:57:36;17.30;99.90
76211;DHT22;65003;49.518;11.280;2023-07-28T05:00:02;17.30;99.90
76211;DHT22;65003;49.518;11.280;2023-07-28T05:02:29;17.40;99.90
76211;DHT22;65003;49.518;11.280;2023-07-28T05:04:56;17.40;99.90
76211;DHT22;65003;49.518;11.280;2023-07-28T05:07:22;17.40;99.90
76211;DHT22;65003;49.518;11.280;2023-07-28T05:09:49;17.40;99.90
76211;DHT22;65003;49.518;11.280;2023-07-28T05:12:15;17.40;99.90
76211;DHT22;65003;49.518;11.280;2023-07-28T05:14:42;17.40;99.90
76211;DHT22;65003;49.518;11.280;2023-07-28T05:17:09;17.40;99.90
76211;DHT22;65003;49.518;11.280;2023-07-28T05:19:35;17.40;99.90
76211;DHT22;65003;49.518;11.280;2023-07-28T05:22:02;17.50;99.90
76211;DHT22;65003;49.518;11.280;2023-07-28T05:24:28;17.50;99.90
76211;DHT22;65003;49.518;11.280;2023-07-28T05:26:55;17.50;99.90
76211;DHT22;65003;49.518;11.280;2023-07-28T05:29:21;17.50;99.90
76211;DHT22;65003;49.518;11.280;2023-07-28T05:31:48;17.60;99.90
76211;DHT22;65003;49.518;11.280;2023-07-28T05:34:15;17.60;99.90
76211;DHT22;65003;49.518;11.280;2023-07-28T05:36:42;17.60;99.90
76211;DHT22;65003;49.518;11.280;2023-07-28T05:39:08;17.60;99.90
76211;DHT22;65003;49.518;11.280;2023-07-28T05:41:36;17.60;99.90
76211;DHT22;65003;49.518;11.280;2023-07-28T05:44:01;17.60;99.90
76211;DHT22;65003;49.518;11.280;2023-07-28T05:46:28;17.70;99.90
76211;DHT22;65003;49.518;11.280;2023-07-28T05:48:54;17.70;99.90
76211;DHT22;65003;49.518;11.280;2023-07-28T05:51:21;18.00;99.90
76211;DHT22;65003;49.518;11.280;2023-07-28T05:53:48;17.70;99.90
76211;DHT22;65003;49.518;11.280;2023-07-28T05:56:14;17.70;99.90
76211;DHT22;65003;49.518;11.280;2023-07-28T05:58:41;17.70;99.90
76211;DHT22;65003;49.518;11.280;2023-07-28T06:01:07;17.70;99.90
76211;DHT22;65003;49.518;11.280;2023-07-28T06:03:34;17.70;99.90
76211;DHT22;65003;49.518;11.280;2023-07-28T06:06:01;17.70;99.90
76211;DHT22;65003;49.518;11.280;2023-07-28T06:08:27;17.70;99.90
76211;DHT22;65003;49.518;11.280;2023-07-28T06:10:54;17.70;99.90
76211;DHT22;65003;49.518;11.280;2023-07-28T06:13:20;17.80;99.90
76211;DHT22;65003;49.518;11.280;2023-07-28T06:15:47;17.80;99.90
76211;DHT22;65003;49.518;11.280;2023-07-28T06:18:13;17.80;99.90
76211;DHT22;65003;49.518;11.280;2023-07-28T06:20:42;17.80;99.90
76211;DHT22;65003;49.518;11.280;2023-07-28T06:23:08;17.80;99.90
76211;DHT22;65003;49.518;11.280;2023-07-28T06:25:35;17.90;99.90
76211;DHT22;65003;49.518;11.280;2023-07-28T06:28:02;18.00;99.90
76211;DHT22;65003;49.518;11.280;2023-07-28T06:30:28;18.00;99.90
76211;DHT22;65003;49.518;11.280;2023-07-28T06:32:55;18.10;99.90
76211;DHT22;65003;49.518;11.280;2023-07-28T06:35:22;18.10;99.90
76211;DHT22;65003;49.518;11.280;2023-07-28T06:37:48;18.10;99.90
76211;DHT22;65003;49.518;11.280;2023-07-28T06:40:15;18.10;99.90
76211;DHT22;65003;49.518;11.280;2023-07-28T06:42:41;18.10;99.90
76211;DHT22;65003;49.518;11.280;2023-07-28T06:45:08;18.10;99.90
76211;DHT22;65003;49.518;11.280;2023-07-28T06:47:35;18.20;99.90
76211;DHT22;65003;49.518;11.280;2023-07-28T06:50:02;18.30;99.90
76211;DHT22;65003;49.518;11.280;2023-07-28T06:52:28;18.30;99.90
76211;DHT22;65003;49.518;11.280;2023-07-28T06:54:55;18.30;99.90
76211;DHT22;65003;49.518;11.280;2023-07-28T06:57:22;18.30;99.90
76211;DHT22;65003;49.518;11.280;2023-07-28T06:59:49;18.30;99.90
76211;DHT22;65003;49.518;11.280;2023-07-28T07:02:15;18.20;99.90
76211;DHT22;65003;49.518;11.280;2023-07-28T07:04:41;18.20;99.90
76211;DHT22;65003;49.518;11.280;2023-07-28T07:07:08;18.20;99.90
76211;DHT22;65003;49.518;11.280;2023-07-28T07:09:35;18.20;99.90
76211;DHT22;65003;49.518;11.280;2023-07-28T07:12:01;18.30;99.90
76211;DHT22;65003;49.518;11.280;2023-07-28T07:14:28;18.30;99.90
76211;DHT22;65003;49.518;11.280;2023-07-28T07:16:54;18.40;99.90
76211;DHT22;65003;49.518;11.280;2023-07-28T07:19:21;18.40;99.90
76211;DHT22;65003;49.518;11.280;2023-07-28T07:21:47;18.40;99.90
76211;DHT22;65003;49.518;11.280;2023-07-28T07:24:14;18.40;99.90
76211;DHT22;65003;49.518;11.280;2023-07-28T07:26:41;18.40;99.90
76211;DHT22;65003;49.518;11.280;2023-07-28T07:29:08;18.30;99.90
76211;DHT22;65003;49.518;11.280;2023-07-28T07:31:34;18.30;99.90
76211;DHT22;65003;49.518;11.280;2023-07-28T07:34:01;18.30;99.90
76211;DHT22;65003;49.518;11.280;2023-07-28T07:36:27;18.20;99.90
76211;DHT22;65003;49.518;11.280;2023-07-28T07:38:54;18.20;99.90
76211;DHT22;65003;49.518;11.280;2023-07-28T07:41:21;18.10;99.90
76211;DHT22;65003;49.518;11.280;2023-07-28T07:43:49;18.20;99.90
76211;DHT22;65003;49.518;11.280;2023-07-28T07:46:15;18.10;99.90
76211;DHT22;65003;49.518;11.280;2023-07-28T07:48:41;18.10;99.90
76211;DHT22;65003;49.518;11.280;2023-07-28T07:51:08;18.10;99.90
76211;DHT22;65003;49.518;11.280;2023-07-28T07:53:35;18.10;99.90
76211;DHT22;65003;49.518;11.280;2023-07-28T07:56:04;18.10;99.90
76211;DHT22;65003;49.518;11.280;2023-07-28T07:58:31;18.10;99.90
76211;DHT22;65003;49.518;11.280;2023-07-28T08:00:57;18.10;99.90
76211;DHT22;65003;49.518;11.280;2023-07-28T08:03:24;18.10;99.90
76211;DHT22;65003;49.518;11.280;2023-07-28T08:05:51;18.10;99.90
76211;DHT22;65003;49.518;11.280;2023-07-28T08:08:17;18.20;99.90
76211;DHT22;65003;49.518;11.280;2023-07-28T08:10:44;18.30;99.90
76211;DHT22;65003;49.518;11.280;2023-07-28T08:13:10;18.30;99.90
76211;DHT22;65003;49.518;11.280;2023-07-28T08:15:37;18.40;99.90
76211;DHT22;65003;49.518;11.280;2023-07-28T08:18:03;18.50;99.90
76211;DHT22;65003;49.518;11.280;2023-07-28T08:20:30;18.60;99.90
76211;DHT22;65003;49.518;11.280;2023-07-28T08:22:57;18.70;99.90
76211;DHT22;65003;49.518;11.280;2023-07-28T08:25:23;18.80;99.90
76211;DHT22;65003;49.518;11.280;2023-07-28T08:27:50;18.90;99.90
76211;DHT22;65003;49.518;11.280;2023-07-28T08:30:17;19.00;99.90
76211;DHT22;65003;49.518;11.280;2023-07-28T08:32:43;19.00;99.90
76211;DHT22;65003;49.518;11.280;2023-07-28T08:35:10;19.10;99.90
76211;DHT22;65003;49.518;11.280;2023-07-28T08:37:37;19.20;99.90
76211;DHT22;65003;49.518;11.280;2023-07-28T08:40:04;19.20;99.90
76211;DHT22;65003;49.518;11.280;2023-07-28T08:42:32;19.20;99.90
76211;DHT22;65003;49.518;11.280;2023-07-28T08:44:57;19.10;99.90
76211;DHT22;65003;49.518;11.280;2023-07-28T08:47:24;19.00;99.90
76211;DHT22;65003;49.518;11.280;2023-07-28T08:49:50;19.00;99.90
76211;DHT22;65003;49.518;11.280;2023-07-28T08:52:17;19.00;99.90
76211;DHT22;65003;49.518;11.280;2023-07-28T08:54:44;18.90;99.90
76211;DHT22;65003;49.518;11.280;2023-07-28T08:57:10;18.90;99.90
76211;DHT22;65003;49.518;11.280;2023-07-28T08:59:37;19.00;99.90
76211;DHT22;65003;49.518;11.280;2023-07-28T09:02:04;19.00;99.90
76211;DHT22;65003;49.518;11.280;2023-07-28T09:04:30;19.00;99.90
76211;DHT22;65003;49.518;11.280;2023-07-28T09:06:57;19.00;99.90
76211;DHT22;65003;49.518;11.280;2023-07-28T09:09:24;19.00;99.90
76211;DHT22;65003;49.518;11.280;2023-07-28T09:11:51;19.00;99.90
76211;DHT22;65003;49.518;11.280;2023-07-28T09:14:17;19.00;99.90
76211;DHT22;65003;49.518;11.280;2023-07-28T09:16:43;19.00;99.90
76211;DHT22;65003;49.518;11.280;2023-07-28T09:19:10;19.00;99.90
76211;DHT22;65003;49.518;11.280;2023-07-28T09:21:38;19.00;99.90
76211;DHT22;65003;49.518;11.280;2023-07-28T09:24:04;19.10;99.90
76211;DHT22;65003;49.518;11.280;2023-07-28T09:26:42;19.10;99.90
76211;DHT22;65003;49.518;11.280;2023-07-28T09:29:14;19.20;99.90
76211;DHT22;65003;49.518;11.280;2023-07-28T09:31:41;19.30;99.90
76211;DHT22;65003;49.518;11.280;2023-07-28T09:34:08;19.40;99.90
76211;DHT22;65003;49.518;11.280;2023-07-28T09:36:35;19.40;99.90
76211;DHT22;65003;49.518;11.280;2023-07-28T09:39:02;19.40;99.90
76211;DHT22;65003;49.518;11.280;2023-07-28T09:41:29;19.30;99.90
76211;DHT22;65003;49.518;11.280;2023-07-28T09:43:55;19.30;99.90
76211;DHT22;65003;49.518;11.280;2023-07-28T09:46:22;19.30;99.90
76211;DHT22;65003;49.518;11.280;2023-07-28T09:48:48;19.40;99.90
76211;DHT22;65003;49.518;11.280;2023-07-28T09:51:17;19.50;99.90
76211;DHT22;65003;49.518;11.280;2023-07-28T09:53:44;19.50;99.90
76211;DHT22;65003;49.518;11.280;2023-07-28T09:56:08;19.60;99.90
76211;DHT22;65003;49.518;11.280;2023-07-28T09:58:36;19.70;99.90
76211;DHT22;65003;49.518;11.280;2023-07-28T10:01:02;20.00;99.90
76211;DHT22;65003;49.518;11.280;2023-07-28T10:03:28;20.20;99.90
76211;DHT22;65003;49.518;11.280;2023-07-28T10:05:55;20.40;99.90
76211;DHT22;65003;49.518;11.280;2023-07-28T10:08:21;20.80;99.90
76211;DHT22;65003;49.518;11.280;2023-07-28T10:10:48;21.10;99.90
76211;DHT22;65003;49.518;11.280;2023-07-28T10:13:20;21.30;99.90
76211;DHT22;65003;49.518;11.280;2023-07-28T10:15:47;21.20;99.90
76211;DHT22;65003;49.518;11.280;2023-07-28T10:18:13;21.10;99.90
76211;DHT22;65003;49.518;11.280;2023-07-28T10:20:42;20.90;99.90
76211;DHT22;65003;49.518;11.280;2023-07-28T10:23:22;20.60;99.90
76211;DHT22;65003;49.518;11.280;2023-07-28T10:25:55;20.40;99.90
76211;DHT22;65003;49.518;11.280;2023-07-28T10:28:30;20.30;99.90
76211;DHT22;65003;49.518;11.280;2023-07-28T10:30:58;20.50;99.90
76211;DHT22;65003;49.518;11.280;2023-07-28T10:33:34;20.30;99.90
76211;DHT22;65003;49.518;11.280;2023-07-28T10:36:13;20.40;99.90
76211;DHT22;65003;49.518;11.280;2023-07-28T10:38:39;20.60;99.90
76211;DHT22;65003;49.518;11.280;2023-07-28T10:41:07;20.70;99.90
76211;DHT22;65003;49.518;11.280;2023-07-28T10:43:33;20.70;99.90
76211;DHT22;65003;49.518;11.280;2023-07-28T10:46:00;20.80;99.90
76211;DHT22;65003;49.518;11.280;2023-07-28T10:48:26;21.00;99.90
76211;DHT22;65003;49.518;11.280;2023-07-28T10:50:53;21.30;99.90
76211;DHT22;65003;49.518;11.280;2023-07-28T10:53:19;21.60;99.90
76211;DHT22;65003;49.518;11.280;2023-07-28T10:55:46;21.90;99.90
76211;DHT22;65003;49.518;11.280;2023-07-28T10:58:12;22.30;99.90
76211;DHT22;65003;49.518;11.280;2023-07-28T11:00:39;22.60;99.90
76211;DHT22;65003;49.518;11.280;2023-07-28T11:03:07;22.70;99.50
76211;DHT22;65003;49.518;11.280;2023-07-28T11:05:32;22.70;99.90
76211;DHT22;65003;49.518;11.280;2023-07-28T11:08:00;22.80;99.90
76211;DHT22;65003;49.518;11.280;2023-07-28T11:10:29;23.10;99.50
76211;DHT22;65003;49.518;11.280;2023-07-28T11:12:56;23.60;98.90
76211;DHT22;65003;49.518;11.280;2023-07-28T11:15:21;23.60;97.30
76211;DHT22;65003;49.518;11.280;2023-07-28T11:17:49;23.80;97.30
76211;DHT22;65003;49.518;11.280;2023-07-28T11:20:18;24.00;97.00
76211;DHT22;65003;49.518;11.280;2023-07-28T11:22:46;24.00;95.70
76211;DHT22;65003;49.518;11.280;2023-07-28T11:25:12;23.60;96.10
76211;DHT22;65003;49.518;11.280;2023-07-28T11:27:39;23.60;96.60
76211;DHT22;65003;49.518;11.280;2023-07-28T11:30:07;23.80;96.20
76211;DHT22;65003;49.518;11.280;2023-07-28T11:32:34;23.90;95.10
76211;DHT22;65003;49.518;11.280;2023-07-28T11:35:06;24.10;94.60
76211;DHT22;65003;49.518;11.280;2023-07-28T11:37:33;24.10;94.80
76211;DHT22;65003;49.518;11.280;2023-07-28T11:40:00;24.20;94.50
76211;DHT22;65003;49.518;11.280;2023-07-28T11:42:27;24.10;94.60
76211;DHT22;65003;49.518;11.280;2023-07-28T11:44:53;24.10;93.40
76211;DHT22;65003;49.518;11.280;2023-07-28T11:47:19;24.00;93.50
76211;DHT22;65003;49.518;11.280;2023-07-28T11:49:47;24.00;93.60
76211;DHT22;65003;49.518;11.280;2023-07-28T11:52:13;23.70;94.00
76211;DHT22;65003;49.518;11.280;2023-07-28T11:54:40;23.60;94.10
76211;DHT22;65003;49.518;11.280;2023-07-28T11:57:07;23.30;94.00
76211;DHT22;65003;49.518;11.280;2023-07-28T11:59:34;23.10;94.80
76211;DHT22;65003;49.518;11.280;2023-07-28T12:02:01;22.90;95.70
76211;DHT22;65003;49.518;11.280;2023-07-28T12:04:28;22.90;95.30
76211;DHT22;65003;49.518;11.280;2023-07-28T12:07:01;23.30;96.20
76211;DHT22;65003;49.518;11.280;2023-07-28T12:09:27;23.60;94.20
76211;DHT22;65003;49.518;11.280;2023-07-28T12:11:54;23.70;94.90
76211;DHT22;65003;49.518;11.280;2023-07-28T12:14:33;23.80;94.50
76211;DHT22;65003;49.518;11.280;2023-07-28T12:16:59;23.80;93.20
76211;DHT22;65003;49.518;11.280;2023-07-28T12:19:25;23.70;93.10
76211;DHT22;65003;49.518;11.280;2023-07-28T12:21:52;23.70;93.10
76211;DHT22;65003;49.518;11.280;2023-07-28T12:24:19;23.60;93.00
76211;DHT22;65003;49.518;11.280;2023-07-28T12:26:46;23.70;92.80
76211;DHT22;65003;49.518;11.280;2023-07-28T12:29:12;23.70;92.50
76211;DHT22;65003;49.518;11.280;2023-07-28T12:31:38;23.70;92.50
76211;DHT22;65003;49.518;11.280;2023-07-28T12:34:05;23.70;92.60
76211;DHT22;65003;49.518;11.280;2023-07-28T12:36:31;23.90;92.50
76211;DHT22;65003;49.518;11.280;2023-07-28T12:38:58;24.10;92.20
76211;DHT22;65003;49.518;11.280;2023-07-28T12:41:25;24.30;91.60
76211;DHT22;65003;49.518;11.280;2023-07-28T12:43:51;24.20;91.20
76211;DHT22;65003;49.518;11.280;2023-07-28T12:46:18;23.90;92.00
76211;DHT22;65003;49.518;11.280;2023-07-28T12:48:44;23.70;91.70
76211;DHT22;65003;49.518;11.280;2023-07-28T12:51:11;23.60;92.00
76211;DHT22;65003;49.518;11.280;2023-07-28T12:53:38;23.40;92.60
76211;DHT22;65003;49.518;11.280;2023-07-28T12:56:04;23.40;92.70
76211;DHT22;65003;49.518;11.280;2023-07-28T12:58:31;23.40;92.70
76211;DHT22;65003;49.518;11.280;2023-07-28T13:00:57;23.50;92.50
76211;DHT22;65003;49.518;11.280;2023-07-28T13:03:24;23.50;92.30
76211;DHT22;65003;49.518;11.280;2023-07-28T13:05:51;23.50;92.40
76211;DHT22;65003;49.518;11.280;2023-07-28T13:08:17;23.50;90.80
76211;DHT22;65003;49.518;11.280;2023-07-28T13:10:44;23.40;91.30
76211;DHT22;65003;49.518;11.280;2023-07-28T13:13:10;23.50;91.00
76211;DHT22;65003;49.518;11.280;2023-07-28T13:15:37;23.40;91.10
76211;DHT22;65003;49.518;11.280;2023-07-28T13:18:03;23.50;91.70
76211;DHT22;65003;49.518;11.280;2023-07-28T13:20:30;23.50;91.10
76211;DHT22;65003;49.518;11.280;2023-07-28T13:22:57;23.40;91.60
76211;DHT22;65003;49.518;11.280;2023-07-28T13:25:23;23.40;91.90
76211;DHT22;65003;49.518;11.280;2023-07-28T13:27:50;23.30;92.20
76211;DHT22;65003;49.518;11.280;2023-07-28T13:30:16;23.40;92.00
76211;DHT22;65003;49.518;11.280;2023-07-28T13:32:43;23.40;92.10
76211;DHT22;65003;49.518;11.280;2023-07-28T13:35:10;23.40;92.30
76211;DHT22;65003;49.518;11.280;2023-07-28T13:37:36;23.40;92.20
76211;DHT22;65003;49.518;11.280;2023-07-28T13:40:03;23.30;92.10
76211;DHT22;65003;49.518;11.280;2023-07-28T13:42:30;23.30;92.10
76211;DHT22;65003;49.518;11.280;2023-07-28T13:44:57;23.30;92.40
76211;DHT22;65003;49.518;11.280;2023-07-28T13:47:23;23.40;92.30
76211;DHT22;65003;49.518;11.280;2023-07-28T13:49:50;23.50;92.00
76211;DHT22;65003;49.518;11.280;2023-07-28T13:52:16;23.50;91.40
76211;DHT22;65003;49.518;11.280;2023-07-28T13:54:43;23.60;90.70
76211;DHT22;65003;49.518;11.280;2023-07-28T13:57:10;23.60;90.50
76211;DHT22;65003;49.518;11.280;2023-07-28T13:59:36;23.80;90.10
76211;DHT22;65003;49.518;11.280;2023-07-28T14:02:03;24.00;90.60
76211;DHT22;65003;49.518;11.280;2023-07-28T14:04:30;24.10;89.50
76211;DHT22;65003;49.518;11.280;2023-07-28T14:06:56;24.10;89.50
76211;DHT22;65003;49.518;11.280;2023-07-28T14:09:23;24.10;88.60
76211;DHT22;65003;49.518;11.280;2023-07-28T14:11:50;24.00;88.40
76211;DHT22;65003;49.518;11.280;2023-07-28T14:14:16;23.90;88.80
76211;DHT22;65003;49.518;11.280;2023-07-28T14:16:43;23.70;88.70
76211;DHT22;65003;49.518;11.280;2023-07-28T14:19:09;23.50;90.40
76211;DHT22;65003;49.518;11.280;2023-07-28T14:21:36;23.30;90.40
76211;DHT22;65003;49.518;11.280;2023-07-28T14:24:03;23.30;90.90
76211;DHT22;65003;49.518;11.280;2023-07-28T14:26:29;23.30;91.10
76211;DHT22;65003;49.518;11.280;2023-07-28T14:28:56;23.20;91.40
76211;DHT22;65003;49.518;11.280;2023-07-28T14:31:22;23.30;91.50
76211;DHT22;65003;49.518;11.280;2023-07-28T14:33:49;23.20;91.20
76211;DHT22;65003;49.518;11.280;2023-07-28T14:36:16;23.10;91.50
76211;DHT22;65003;49.518;11.280;2023-07-28T14:38:42;23.20;92.00
76211;DHT22;65003;49.518;11.280;2023-07-28T14:41:09;23.40;91.90
76211;DHT22;65003;49.518;11.280;2023-07-28T14:43:36;23.40;91.10
76211;DHT22;65003;49.518;11.280;2023-07-28T14:46:02;23.40;91.80
76211;DHT22;65003;49.518;11.280;2023-07-28T14:48:29;23.50;91.60
76211;DHT22;65003;49.518;11.280;2023-07-28T14:50:55;23.50;91.60
76211;DHT22;65003;49.518;11.280;2023-07-28T14:53:31;23.40;92.10
76211;DHT22;65003;49.518;11.280;2023-07-28T14:55:56;23.50;91.50
76211;DHT22;65003;49.518;11.280;2023-07-28T14:58:23;23.60;91.60
76211;DHT22;65003;49.518;11.280;2023-07-28T15:00:50;23.70;91.70
76211;DHT22;65003;49.518;11.280;2023-07-28T15:03:16;23.70;91.60
76211;DHT22;65003;49.518;11.280;2023-07-28T15:05:43;23.80;91.30
76211;DHT22;65003;49.518;11.280;2023-07-28T15:08:09;23.70;91.30
76211;DHT22;65003;49.518;11.280;2023-07-28T15:10:36;23.80;91.10
76211;DHT22;65003;49.518;11.280;2023-07-28T15:13:03;23.90;91.20